createdAt,value
2023-01-08T00:00:28.252Z,3.9
2023-01-08T00:30:13.678Z,4.2
2023-01-08T01:00:29.332Z,4.2
2023-01-08T01:30:15.116Z,4.3
2023-01-08T02:00:23.530Z,4.6
2023-01-08T03:00:27.249Z,4.6
2023-01-08T03:30:26.820Z,4.7
2023-01-08T04:00:12.070Z,5.9
2023-01-08T04:30:19.493Z,5.7
2023-01-08T05:00:04.740Z,5.1
2023-01-08T05:30:20.044Z,5
2023-01-08T06:00:21.177Z,5.3
2023-01-08T06:30:13.688Z,5.3
2023-01-08T07:30:29.613Z,5.4
2023-01-08T08:00:09.530Z,5.4
2023-01-08T08:30:10.251Z,5.5
2023-01-08T09:00:02.023Z,5.6
2023-01-08T09:30:02.733Z,5.7
2023-01-08T10:00:24.697Z,5.8
2023-01-08T10:30:09.357Z,5.6
2023-01-08T11:00:10.253Z,5.8
2023-01-08T11:30:26.449Z,6.1
2023-01-08T12:00:21.630Z,6.6
2023-01-08T12:30:13.684Z,6.6
2023-01-08T13:00:14.532Z,6.5
2023-01-08T13:30:06.394Z,6.7
2023-01-08T14:00:07.575Z,7
2023-01-08T14:30:21.821Z,6.8
2023-01-08T15:00:08.355Z,7.1
2023-01-08T15:30:17.231Z,6.5
2023-01-08T16:00:17.692Z,6.5
2023-01-08T16:30:12.588Z,6.4
2023-01-08T17:00:13.122Z,6.3
2023-01-08T17:30:20.101Z,6
2023-01-08T18:00:05.207Z,5.7
2023-01-08T18:30:05.029Z,5.3
2023-01-08T19:00:13.619Z,5.4
2023-01-08T19:30:29.488Z,5.4
2023-01-08T20:00:29.601Z,5.3
2023-01-08T20:30:30.153Z,5.4
2023-01-08T21:30:17.582Z,5.6
2023-01-08T22:00:02.408Z,5.6
2023-01-08T22:30:18.170Z,5.3
2023-01-08T23:00:10.256Z,5.5
2023-01-08T23:30:25.295Z,5.1
